createdAt,value
2022-09-16T00:00:19.161Z,61.09
2022-09-16T00:01:22.022Z,61.29
2022-09-16T00:02:24.261Z,61.17
2022-09-16T00:03:26.595Z,61.12
2022-09-16T00:04:28.824Z,61.46
2022-09-16T00:05:31.145Z,61.21
2022-09-16T00:06:33.258Z,61.29
2022-09-16T00:07:35.881Z,61.42
2022-09-16T00:08:40.794Z,61.35
2022-09-16T00:09:42.905Z,61.32
2022-09-16T00:10:45.458Z,61.64
2022-09-16T00:11:48.477Z,61.64
2022-09-16T00:12:50.835Z,61.59
2022-09-16T00:13:53.075Z,61.40
2022-09-16T00:14:55.589Z,61.28
2022-09-16T00:16:00.111Z,61.31
2022-09-16T00:17:02.311Z,61.51
2022-09-16T00:18:04.609Z,61.15
2022-09-16T00:19:13.274Z,61.37
2022-09-16T00:20:15.497Z,61.47
2022-09-16T00:21:17.719Z,61.28
2022-09-16T00:22:19.869Z,61.45
2022-09-16T00:23:22.084Z,61.64
2022-09-16T00:24:24.245Z,61.53
2022-09-16T00:25:26.353Z,61.60
2022-09-16T00:26:29.937Z,61.51
2022-09-16T00:27:32.138Z,61.95
2022-09-16T00:28:34.261Z,61.90
2022-09-16T00:29:36.602Z,61.76
2022-09-16T00:30:38.778Z,61.69
2022-09-16T00:31:41.015Z,61.84
2022-09-16T00:32:43.249Z,61.97
2022-09-16T00:33:45.398Z,62.03
2022-09-16T00:34:47.582Z,62.18
2022-09-16T00:35:49.730Z,62.09
2022-09-16T00:36:52.202Z,62.50
2022-09-16T00:37:54.345Z,62.26
2022-09-16T00:38:56.555Z,62.20
2022-09-16T00:39:58.742Z,62.17
2022-09-16T00:41:01.123Z,62.27
2022-09-16T00:42:04.957Z,62.44
2022-09-16T00:43:10.726Z,62.16
2022-09-16T00:44:51.821Z,62.46
2022-09-16T00:46:04.678Z,62.14
2022-09-16T00:47:06.995Z,62.28
2022-09-16T00:48:15.529Z,62.33
2022-09-16T00:49:27.334Z,62.60
2022-09-16T00:51:01.643Z,62.49
2022-09-16T00:52:07.162Z,62.55
2022-09-16T00:53:16.267Z,62.37
2022-09-16T00:54:20.099Z,62.30
2022-09-16T00:55:28.102Z,62.59
2022-09-16T00:56:34.694Z,62.68
2022-09-16T00:57:38.291Z,62.76
2022-09-16T00:58:48.608Z,62.80
2022-09-16T00:59:55.732Z,62.64
2022-09-16T01:00:57.965Z,62.61
2022-09-16T01:02:06.819Z,62.84
2022-09-16T01:03:09.130Z,62.95
2022-09-16T01:04:22.518Z,62.64
2022-09-16T01:05:26.806Z,62.90
2022-09-16T01:06:29.554Z,62.81
2022-09-16T01:07:43.939Z,62.65
2022-09-16T01:08:46.585Z,62.79
2022-09-16T01:09:48.895Z,62.77
2022-09-16T01:10:51.075Z,62.69
2022-09-16T01:11:53.600Z,62.46
2022-09-16T01:12:59.855Z,62.70
2022-09-16T01:14:23.190Z,62.61
2022-09-16T01:15:45.014Z,62.27
2022-09-16T01:17:08.913Z,62.25
2022-09-16T01:18:37.271Z,61.91
2022-09-16T01:20:19.215Z,62.06
2022-09-16T01:21:26.987Z,62.12
2022-09-16T01:22:56.889Z,61.91
2022-09-16T01:24:24.978Z,61.93
2022-09-16T01:25:54.719Z,61.52
2022-09-16T01:27:28.102Z,61.68
2022-09-16T01:28:51.695Z,61.65
2022-09-16T01:30:02.505Z,61.49
2022-09-16T01:31:29.506Z,61.37
2022-09-16T01:32:49.441Z,61.43
2022-09-16T01:34:13.464Z,61.40
2022-09-16T01:35:35.611Z,61.36
2022-09-16T01:37:10.913Z,61.42
2022-09-16T01:38:20.416Z,61.27
2022-09-16T01:39:25.233Z,61.44
2022-09-16T01:40:52.530Z,61.51
2022-09-16T01:42:18.763Z,61.39
2022-09-16T01:43:51.889Z,61.52
2022-09-16T01:44:53.981Z,61.31
2022-09-16T01:45:57.842Z,61.38
2022-09-16T01:47:05.801Z,61.33
2022-09-16T01:48:19.720Z,61.68
2022-09-16T01:49:31.425Z,61.63
2022-09-16T01:50:43.417Z,61.40
2022-09-16T01:51:57.150Z,61.73
2022-09-16T01:53:17.411Z,61.43
2022-09-16T01:54:29.725Z,61.79
2022-09-16T01:55:58.793Z,61.52
2022-09-16T01:57:41.986Z,61.43
2022-09-16T01:59:06.508Z,61.45
2022-09-16T02:00:16.358Z,61.83
2022-09-16T02:01:44.748Z,61.56
2022-09-16T02:03:11.810Z,61.65
2022-09-16T02:04:18.661Z,61.84
2022-09-16T02:05:29.324Z,61.61
2022-09-16T02:06:34.074Z,61.80
2022-09-16T02:07:40.379Z,61.81
2022-09-16T02:08:54.267Z,61.52
2022-09-16T02:10:00.691Z,61.58
2022-09-16T02:11:06.341Z,61.41
2022-09-16T02:12:14.462Z,61.62
2022-09-16T02:13:24.259Z,61.50
2022-09-16T02:14:32.135Z,61.53
2022-09-16T02:15:34.568Z,61.43
2022-09-16T02:16:42.950Z,61.20
2022-09-16T02:17:51.935Z,61.40
2022-09-16T02:19:02.266Z,61.17
2022-09-16T02:20:07.831Z,61.42
2022-09-16T02:21:15.937Z,61.21
2022-09-16T02:22:30.212Z,61.51
2022-09-16T02:23:46.019Z,61.24
2022-09-16T02:24:48.565Z,61.52
2022-09-16T02:25:52.498Z,61.40
2022-09-16T02:27:00.875Z,61.61
2022-09-16T02:28:07.295Z,61.46
2022-09-16T02:29:19.694Z,61.35
2022-09-16T02:30:23.253Z,61.47
2022-09-16T02:31:33.911Z,61.67
2022-09-16T02:32:42.069Z,61.18
2022-09-16T02:34:07.321Z,61.41
2022-09-16T02:35:12.705Z,61.58
2022-09-16T02:36:20.473Z,61.54
2022-09-16T02:37:31.090Z,61.25
2022-09-16T02:38:40.361Z,61.43
2022-09-16T02:39:46.738Z,61.21
2022-09-16T02:40:56.626Z,61.41
2022-09-16T02:41:59.709Z,61.37
2022-09-16T02:43:02.790Z,61.33
2022-09-16T02:44:05.741Z,61.65
2022-09-16T02:45:08.698Z,61.45
2022-09-16T02:46:35.493Z,61.35
2022-09-16T02:48:15.807Z,61.36
2022-09-16T02:49:33.941Z,61.60
2022-09-16T02:50:59.079Z,61.67
2022-09-16T02:52:15.910Z,61.64
2022-09-16T02:53:52.016Z,61.62
2022-09-16T02:55:22.422Z,61.61
2022-09-16T02:56:31.962Z,61.64
2022-09-16T02:57:34.174Z,61.45
2022-09-16T02:58:36.325Z,61.70
2022-09-16T02:59:39.455Z,61.75
2022-09-16T03:00:46.724Z,61.84
2022-09-16T03:01:49.009Z,61.83
2022-09-16T03:02:51.575Z,61.83
2022-09-16T03:03:55.883Z,61.71
2022-09-16T03:04:58.025Z,61.68
2022-09-16T03:06:06.513Z,61.79
2022-09-16T03:07:11.509Z,61.85
2022-09-16T03:08:13.678Z,61.73
2022-09-16T03:09:18.415Z,61.99
2022-09-16T03:10:24.036Z,61.79
2022-09-16T03:11:31.920Z,61.94
2022-09-16T03:13:02.170Z,61.77
2022-09-16T03:14:29.646Z,61.79
2022-09-16T03:15:53.802Z,61.93
2022-09-16T03:17:00.625Z,61.80
2022-09-16T03:18:36.759Z,61.70
2022-09-16T03:20:12.087Z,61.75
2022-09-16T03:21:28.108Z,61.81
2022-09-16T03:22:42.306Z,61.68
2022-09-16T03:23:49.694Z,61.71
2022-09-16T03:25:06.609Z,61.71
2022-09-16T03:26:26.851Z,61.46
2022-09-16T03:27:47.034Z,61.33
2022-09-16T03:29:23.305Z,61.54
2022-09-16T03:30:25.527Z,61.48
2022-09-16T03:31:37.289Z,61.37
2022-09-16T03:32:53.662Z,61.43
2022-09-16T03:34:12.844Z,61.37
2022-09-16T03:35:17.669Z,61.37
2022-09-16T03:36:26.967Z,61.40
2022-09-16T03:37:34.754Z,61.48
2022-09-16T03:38:39.039Z,61.32
2022-09-16T03:39:42.185Z,61.54
2022-09-16T03:40:46.283Z,61.45
2022-09-16T03:41:49.085Z,61.46
2022-09-16T03:42:51.303Z,61.52
2022-09-16T03:43:59.070Z,61.30
2022-09-16T03:45:04.004Z,61.36
2022-09-16T03:46:30.456Z,61.48
2022-09-16T03:47:33.984Z,61.28
2022-09-16T03:48:36.116Z,61.42
2022-09-16T03:49:38.749Z,61.36
2022-09-16T03:50:43.541Z,61.36
2022-09-16T03:51:45.666Z,61.32
2022-09-16T03:52:47.856Z,61.26
2022-09-16T03:53:51.596Z,61.35
2022-09-16T03:54:53.737Z,61.32
2022-09-16T03:55:55.916Z,61.58
2022-09-16T03:56:58.290Z,61.40
2022-09-16T03:58:00.434Z,61.58
2022-09-16T03:59:02.588Z,61.66
2022-09-16T04:00:07.448Z,61.38
2022-09-16T04:01:15.635Z,61.41
2022-09-16T04:02:18.576Z,61.67
2022-09-16T04:03:20.812Z,61.50
2022-09-16T04:04:23.209Z,61.30
2022-09-16T04:05:25.448Z,61.59
2022-09-16T04:06:27.574Z,61.60
2022-09-16T04:07:29.752Z,61.42
2022-09-16T04:08:32.212Z,61.35
2022-09-16T04:09:34.368Z,61.26
2022-09-16T04:10:36.514Z,61.27
2022-09-16T04:11:39.717Z,61.19
2022-09-16T04:12:41.936Z,61.44
2022-09-16T04:13:44.069Z,61.25
2022-09-16T04:14:46.337Z,61.39
2022-09-16T04:15:48.604Z,61.11
2022-09-16T04:16:50.768Z,61.13
2022-09-16T04:17:52.963Z,61.32
2022-09-16T04:18:55.154Z,61.16
2022-09-16T04:19:57.314Z,61.20
2022-09-16T04:21:01.868Z,61.11
2022-09-16T04:22:04.052Z,61.16
2022-09-16T04:23:06.187Z,60.96
2022-09-16T04:24:12.808Z,60.99
2022-09-16T04:25:15.425Z,61.21
2022-09-16T04:26:17.731Z,61.02
2022-09-16T04:27:19.897Z,61.08
2022-09-16T04:28:22.453Z,61.03
2022-09-16T04:29:25.303Z,61.19
2022-09-16T04:30:27.516Z,61.15
2022-09-16T04:31:30.505Z,61.19
2022-09-16T04:32:32.617Z,61.03
2022-09-16T04:33:35.881Z,61.26
2022-09-16T04:34:38.023Z,61.23
2022-09-16T04:35:40.286Z,61.06
2022-09-16T04:36:42.481Z,61.05
2022-09-16T04:37:44.621Z,61.31
2022-09-16T04:38:48.224Z,61.21
2022-09-16T04:39:50.457Z,61.06
2022-09-16T04:40:54.423Z,61.21
2022-09-16T04:41:56.849Z,61.29
2022-09-16T04:42:58.994Z,61.26
2022-09-16T04:44:01.328Z,61.09
2022-09-16T04:45:04.064Z,61.12
2022-09-16T04:46:06.975Z,61.23
2022-09-16T04:47:09.126Z,61.15
2022-09-16T04:48:11.280Z,61.04
2022-09-16T04:49:13.925Z,60.98
2022-09-16T04:50:16.202Z,60.89
2022-09-16T04:51:20.256Z,60.81
2022-09-16T04:52:22.534Z,61.00
2022-09-16T04:53:25.185Z,61.00
2022-09-16T04:54:27.958Z,60.95
2022-09-16T04:55:30.203Z,60.97
2022-09-16T04:56:32.857Z,61.05
2022-09-16T04:57:35.139Z,61.04
2022-09-16T04:58:37.291Z,60.88
2022-09-16T04:59:39.479Z,61.05
2022-09-16T05:00:41.656Z,60.90
2022-09-16T05:01:44.025Z,60.64
2022-09-16T05:02:46.683Z,60.63
2022-09-16T05:03:51.370Z,60.74
2022-09-16T05:04:53.521Z,60.77
2022-09-16T05:06:07.820Z,60.73
2022-09-16T05:07:09.949Z,60.49
2022-09-16T05:08:13.128Z,60.68
2022-09-16T05:09:15.357Z,60.52
2022-09-16T05:10:17.483Z,60.62
2022-09-16T05:11:22.558Z,60.30
2022-09-16T05:12:24.718Z,60.22
2022-09-16T05:13:27.510Z,60.24
2022-09-16T05:14:29.742Z,60.42
2022-09-16T05:15:33.991Z,59.98
2022-09-16T05:16:36.197Z,60.21
2022-09-16T05:17:50.997Z,60.03
2022-09-16T05:18:56.379Z,60.27
2022-09-16T05:19:58.532Z,60.22
2022-09-16T05:21:02.377Z,60.22
2022-09-16T05:22:07.272Z,59.90
2022-09-16T05:23:10.556Z,60.03
2022-09-16T05:24:14.003Z,59.83
2022-09-16T05:25:16.161Z,59.83
2022-09-16T05:26:21.572Z,59.92
2022-09-16T05:27:23.833Z,60.05
2022-09-16T05:28:26.011Z,60.09
2022-09-16T05:29:28.166Z,59.87
2022-09-16T05:30:30.316Z,59.80
2022-09-16T05:31:38.045Z,59.80
2022-09-16T05:32:40.177Z,59.84
2022-09-16T05:33:46.276Z,59.95
2022-09-16T05:34:49.849Z,59.94
2022-09-16T05:35:52.000Z,59.76
2022-09-16T05:36:55.829Z,59.78
2022-09-16T05:37:57.962Z,59.96
2022-09-16T05:39:21.506Z,59.98
2022-09-16T05:40:23.248Z,60.13
2022-09-16T05:41:25.974Z,60.22
2022-09-16T05:42:30.411Z,60.11
2022-09-16T05:43:33.412Z,60.08
2022-09-16T05:44:36.082Z,60.12
2022-09-16T05:45:38.718Z,60.14
2022-09-16T05:46:41.564Z,60.43
2022-09-16T05:47:50.606Z,60.27
2022-09-16T05:48:53.350Z,60.17
2022-09-16T05:49:55.654Z,60.37
2022-09-16T05:51:00.108Z,60.36
2022-09-16T05:52:02.808Z,60.26
2022-09-16T05:53:04.944Z,60.24
2022-09-16T05:54:07.375Z,60.09
2022-09-16T05:55:09.636Z,60.01
2022-09-16T05:56:20.481Z,60.00
2022-09-16T05:57:23.976Z,59.96
2022-09-16T05:58:28.167Z,60.03
2022-09-16T05:59:30.303Z,59.83
2022-09-16T06:00:32.510Z,59.86
2022-09-16T06:01:36.043Z,59.90
2022-09-16T06:02:38.450Z,60.08
2022-09-16T06:03:42.600Z,59.83
2022-09-16T06:04:44.729Z,59.98
2022-09-16T06:05:46.922Z,60.29
2022-09-16T06:06:49.094Z,60.34
2022-09-16T06:07:51.227Z,60.26
2022-09-16T06:08:55.954Z,60.60
2022-09-16T06:09:58.142Z,60.39
2022-09-16T06:11:02.921Z,60.29
2022-09-16T06:12:05.318Z,60.21
2022-09-16T06:13:07.883Z,59.91
2022-09-16T06:14:11.267Z,59.80
2022-09-16T06:15:13.504Z,59.77
2022-09-16T06:16:15.890Z,59.37
2022-09-16T06:17:18.146Z,59.53
2022-09-16T06:18:21.530Z,59.16
2022-09-16T06:19:23.771Z,59.07
2022-09-16T06:20:25.975Z,59.20
2022-09-16T06:21:28.695Z,59.14
2022-09-16T06:22:30.963Z,59.02
2022-09-16T06:23:34.062Z,58.86
2022-09-16T06:24:36.236Z,58.90
2022-09-16T06:25:38.408Z,58.25
2022-09-16T06:26:42.658Z,57.68
2022-09-16T06:27:44.833Z,57.86
2022-09-16T06:28:47.820Z,57.36
2022-09-16T06:29:49.941Z,57.71
2022-09-16T06:31:02.407Z,57.28
2022-09-16T06:32:04.664Z,57.00
2022-09-16T06:33:07.186Z,57.05
2022-09-16T06:34:16.249Z,56.57
2022-09-16T06:35:18.438Z,56.50
2022-09-16T06:36:23.931Z,55.73
2022-09-16T06:37:29.012Z,55.68
2022-09-16T06:38:31.290Z,55.29
2022-09-16T06:39:33.513Z,54.96
2022-09-16T06:40:35.786Z,54.93
2022-09-16T06:41:38.036Z,54.47
2022-09-16T06:42:40.457Z,54.38
2022-09-16T06:43:44.500Z,54.08
2022-09-16T06:44:46.907Z,53.44
2022-09-16T06:45:49.470Z,53.10
2022-09-16T06:46:51.690Z,53.00
2022-09-16T06:47:53.818Z,52.68
2022-09-16T06:48:59.356Z,52.71
2022-09-16T06:50:05.908Z,52.21
2022-09-16T06:51:11.338Z,52.35
2022-09-16T06:52:13.538Z,52.25
2022-09-16T06:53:15.718Z,51.99
2022-09-16T06:54:17.953Z,51.58
2022-09-16T06:55:20.152Z,51.80
2022-09-16T06:56:22.668Z,51.30
2022-09-16T06:57:24.943Z,51.37
2022-09-16T06:58:27.155Z,51.57
2022-09-16T06:59:29.325Z,51.39
2022-09-16T07:00:31.477Z,51.41
2022-09-16T07:01:34.279Z,51.33
2022-09-16T07:02:36.822Z,51.53
2022-09-16T07:03:41.164Z,51.50
2022-09-16T07:04:43.404Z,51.33
2022-09-16T07:05:59.610Z,51.38
2022-09-16T07:07:10.316Z,51.42
2022-09-16T07:08:12.930Z,51.90
2022-09-16T07:09:15.136Z,52.04
2022-09-16T07:10:17.260Z,52.09
2022-09-16T07:11:24.132Z,51.86
2022-09-16T07:12:26.290Z,51.73
2022-09-16T07:13:28.954Z,51.61
2022-09-16T07:14:32.784Z,51.47
2022-09-16T07:15:42.300Z,51.32
2022-09-16T07:16:53.462Z,51.34
2022-09-16T07:17:55.677Z,50.97
2022-09-16T07:19:01.053Z,50.45
2022-09-16T07:20:03.880Z,50.37
2022-09-16T07:21:19.638Z,50.34
2022-09-16T07:22:21.882Z,49.72
2022-09-16T07:23:24.369Z,49.72
2022-09-16T07:24:26.537Z,49.89
2022-09-16T07:25:32.470Z,49.62
2022-09-16T07:26:40.976Z,49.05
2022-09-16T07:27:43.110Z,49.27
2022-09-16T07:28:47.325Z,49.01
2022-09-16T07:29:49.584Z,49.12
2022-09-16T07:30:51.881Z,49.23
2022-09-16T07:31:54.386Z,49.22
2022-09-16T07:32:57.161Z,48.99
2022-09-16T07:34:04.274Z,48.92
2022-09-16T07:35:07.272Z,49.21
2022-09-16T07:36:12.309Z,49.15
2022-09-16T07:37:15.003Z,49.38
2022-09-16T07:38:17.194Z,49.39
2022-09-16T07:39:19.868Z,49.45
2022-09-16T07:40:23.759Z,49.24
2022-09-16T07:41:32.529Z,49.07
2022-09-16T07:42:34.673Z,49.21
2022-09-16T07:43:37.634Z,49.25
2022-09-16T07:44:39.843Z,49.19
2022-09-16T07:45:44.331Z,48.85
2022-09-16T07:46:46.997Z,48.81
2022-09-16T07:47:50.346Z,48.60
2022-09-16T07:48:52.482Z,48.61
2022-09-16T07:49:56.194Z,48.67
2022-09-16T07:51:00.689Z,48.95
2022-09-16T07:52:02.820Z,48.91
2022-09-16T07:53:05.325Z,48.84
2022-09-16T07:54:09.383Z,49.01
2022-09-16T07:55:12.899Z,48.92
2022-09-16T07:56:17.619Z,48.88
2022-09-16T07:57:20.579Z,48.88
2022-09-16T07:58:23.176Z,48.41
2022-09-16T07:59:25.362Z,48.68
2022-09-16T08:00:27.637Z,48.78
2022-09-16T08:01:31.441Z,48.76
2022-09-16T08:02:33.789Z,48.75
2022-09-16T08:03:37.414Z,48.78
2022-09-16T08:04:40.047Z,49.04
2022-09-16T08:05:42.518Z,48.99
2022-09-16T08:06:44.929Z,48.74
2022-09-16T08:07:47.072Z,48.42
2022-09-16T08:08:53.117Z,48.66
2022-09-16T08:09:55.824Z,48.66
2022-09-16T08:11:00.465Z,48.79
2022-09-16T08:12:05.076Z,48.68
2022-09-16T08:13:08.855Z,48.68
2022-09-16T08:14:11.051Z,48.91
2022-09-16T08:15:13.287Z,48.94
2022-09-16T08:16:17.987Z,49.13
2022-09-16T08:17:23.209Z,49.51
2022-09-16T08:18:25.402Z,49.80
2022-09-16T08:19:27.562Z,49.61
2022-09-16T08:20:29.748Z,49.40
2022-09-16T08:21:31.929Z,49.51
2022-09-16T08:22:34.448Z,49.24
2022-09-16T08:23:37.885Z,49.61
2022-09-16T08:24:40.062Z,49.37
2022-09-16T08:25:42.594Z,49.43
2022-09-16T08:26:44.834Z,49.41
2022-09-16T08:27:47.111Z,49.33
2022-09-16T08:29:07.955Z,49.19
2022-09-16T08:30:12.025Z,49.00
2022-09-16T08:31:14.252Z,49.28
2022-09-16T08:32:16.419Z,48.96
2022-09-16T08:33:23.387Z,49.10
2022-09-16T08:34:25.597Z,49.38
2022-09-16T08:35:27.784Z,49.76
2022-09-16T08:36:30.110Z,49.67
2022-09-16T08:37:32.254Z,49.80
2022-09-16T08:38:35.337Z,49.33
2022-09-16T08:39:37.518Z,49.25
2022-09-16T08:40:45.184Z,49.03
2022-09-16T08:42:27.449Z,49.26
2022-09-16T08:43:57.680Z,49.27
2022-09-16T08:45:26.324Z,48.94
2022-09-16T08:46:40.531Z,48.27
2022-09-16T08:48:24.079Z,48.40
2022-09-16T08:49:51.235Z,47.60
2022-09-16T08:50:53.896Z,47.00
2022-09-16T08:51:58.984Z,46.64
2022-09-16T08:53:05.657Z,46.24
2022-09-16T08:54:13.329Z,45.70
2022-09-16T08:55:37.783Z,45.72
2022-09-16T08:56:44.944Z,44.81
2022-09-16T08:58:13.428Z,45.04
2022-09-16T08:59:22.009Z,44.96
2022-09-16T09:00:24.463Z,44.41
2022-09-16T09:01:45.140Z,44.35
2022-09-16T09:03:02.602Z,44.45
2022-09-16T09:04:06.038Z,44.00
2022-09-16T09:05:25.798Z,44.31
2022-09-16T09:06:48.534Z,43.78
2022-09-16T09:08:29.744Z,44.30
2022-09-16T09:09:47.163Z,44.02
2022-09-16T09:11:14.931Z,43.86
2022-09-16T09:12:23.682Z,43.56
2022-09-16T09:13:42.030Z,43.58
2022-09-16T09:15:03.129Z,43.46
2022-09-16T09:16:25.246Z,43.87
2022-09-16T09:17:49.346Z,44.10
2022-09-16T09:19:04.583Z,44.11
2022-09-16T09:20:18.599Z,43.90
2022-09-16T09:22:05.727Z,44.10
2022-09-16T09:23:22.922Z,44.22
2022-09-16T09:25:06.509Z,44.36
2022-09-16T09:26:19.286Z,44.42
2022-09-16T09:27:35.523Z,44.80
2022-09-16T09:28:52.732Z,44.75
2022-09-16T09:30:36.265Z,44.97
2022-09-16T09:31:56.865Z,44.67
2022-09-16T09:33:47.261Z,45.19
2022-09-16T09:35:06.404Z,45.02
2022-09-16T09:36:16.763Z,44.96
2022-09-16T09:37:55.190Z,44.93
2022-09-16T09:39:01.536Z,44.86
2022-09-16T09:40:19.336Z,45.51
2022-09-16T09:41:33.845Z,44.98
2022-09-16T09:43:10.048Z,45.58
2022-09-16T09:44:40.129Z,45.71
2022-09-16T09:46:26.628Z,45.55
2022-09-16T09:47:47.509Z,44.71
2022-09-16T09:48:58.215Z,45.05
2022-09-16T09:50:13.772Z,45.06
2022-09-16T09:51:31.952Z,44.60
2022-09-16T09:52:42.200Z,44.29
2022-09-16T09:53:49.982Z,43.93
2022-09-16T09:54:55.417Z,44.42
2022-09-16T09:56:26.700Z,44.62
2022-09-16T09:57:47.878Z,44.57
2022-09-16T09:59:08.880Z,44.62
2022-09-16T10:00:18.309Z,44.35
2022-09-16T10:01:21.116Z,44.21
2022-09-16T10:02:23.859Z,44.16
2022-09-16T10:03:28.426Z,44.67
2022-09-16T10:04:37.992Z,44.70
2022-09-16T10:05:41.316Z,44.93
2022-09-16T10:06:46.119Z,45.04
2022-09-16T10:07:49.666Z,45.42
2022-09-16T10:08:54.173Z,45.64
2022-09-16T10:10:03.739Z,45.61
2022-09-16T10:11:22.695Z,46.13
2022-09-16T10:12:35.172Z,46.74
2022-09-16T10:13:48.368Z,47.28
2022-09-16T10:14:50.502Z,47.26
2022-09-16T10:16:16.460Z,47.80
2022-09-16T10:17:19.797Z,47.99
2022-09-16T10:18:29.951Z,48.31
2022-09-16T10:19:39.871Z,48.56
2022-09-16T10:20:44.734Z,48.96
2022-09-16T10:21:56.156Z,48.81
2022-09-16T10:23:09.397Z,49.00
2022-09-16T10:24:33.477Z,49.20
2022-09-16T10:25:36.137Z,49.87
2022-09-16T10:26:41.179Z,50.11
2022-09-16T10:27:53.852Z,50.45
2022-09-16T10:29:13.851Z,50.42
2022-09-16T10:30:19.826Z,50.36
2022-09-16T10:31:24.136Z,50.60
2022-09-16T10:32:26.382Z,50.91
2022-09-16T10:33:36.673Z,51.14
2022-09-16T10:34:42.323Z,51.00
2022-09-16T10:35:57.975Z,51.06
2022-09-16T10:37:13.612Z,51.51
2022-09-16T10:38:23.756Z,51.77
2022-09-16T10:39:28.548Z,52.00
2022-09-16T10:40:31.800Z,52.12
2022-09-16T10:41:46.522Z,52.37
2022-09-16T10:42:52.207Z,52.78
2022-09-16T10:43:58.298Z,53.32
2022-09-16T10:45:18.399Z,53.59
2022-09-16T10:46:21.374Z,53.76
2022-09-16T10:47:27.737Z,53.57
2022-09-16T10:48:31.391Z,53.59
2022-09-16T10:49:50.217Z,53.43
2022-09-16T10:51:04.033Z,53.61
2022-09-16T10:52:22.066Z,53.59
2022-09-16T10:53:44.335Z,53.15
2022-09-16T10:54:47.570Z,52.85
2022-09-16T10:56:15.797Z,52.58
2022-09-16T10:57:26.848Z,52.05
2022-09-16T10:58:29.340Z,51.91
2022-09-16T10:59:31.495Z,51.98
2022-09-16T11:00:45.967Z,51.53
2022-09-16T11:02:25.774Z,50.79
2022-09-16T11:03:54.047Z,49.55
2022-09-16T11:05:10.205Z,49.30
2022-09-16T11:06:21.738Z,48.98
2022-09-16T11:07:43.028Z,49.28
2022-09-16T11:09:12.664Z,49.34
2022-09-16T11:10:26.803Z,49.59
2022-09-16T11:11:39.657Z,49.60
2022-09-16T11:13:23.975Z,49.93
2022-09-16T11:15:04.721Z,49.52
2022-09-16T11:16:35.878Z,49.54
2022-09-16T11:18:03.539Z,49.33
2022-09-16T11:19:34.207Z,49.37
2022-09-16T11:21:25.647Z,49.32
2022-09-16T11:22:46.664Z,49.31
2022-09-16T11:24:07.191Z,48.94
2022-09-16T11:25:44.050Z,49.11
2022-09-16T11:27:21.637Z,49.10
2022-09-16T11:29:03.596Z,48.86
2022-09-16T11:30:14.578Z,48.63
2022-09-16T11:31:38.168Z,48.58
2022-09-16T11:33:22.395Z,48.70
2022-09-16T11:34:46.769Z,48.71
2022-09-16T11:36:26.506Z,49.16
2022-09-16T11:37:46.978Z,48.77
2022-09-16T11:39:20.245Z,48.98
2022-09-16T11:40:47.583Z,48.97
2022-09-16T11:41:55.774Z,48.69
2022-09-16T11:43:39.001Z,48.76
2022-09-16T11:45:01.336Z,49.16
2022-09-16T11:46:33.827Z,49.29
2022-09-16T11:48:03.949Z,49.25
2022-09-16T11:49:27.584Z,49.01
2022-09-16T11:51:04.102Z,49.17
2022-09-16T11:52:19.274Z,48.93
2022-09-16T11:53:54.494Z,49.11
2022-09-16T11:55:15.533Z,49.44
2022-09-16T11:56:37.566Z,49.14
2022-09-16T11:57:45.227Z,49.19
2022-09-16T11:59:05.585Z,49.05
2022-09-16T12:00:13.712Z,48.70
2022-09-16T12:01:23.215Z,49.14
2022-09-16T12:02:32.164Z,49.15
2022-09-16T12:03:41.409Z,49.82
2022-09-16T12:04:58.775Z,49.27
2022-09-16T12:06:11.424Z,49.41
2022-09-16T12:08:36.288Z,48.26
2022-09-16T12:09:46.972Z,48.30
2022-09-16T12:10:58.600Z,48.08
2022-09-16T12:12:10.278Z,47.77
2022-09-16T12:13:19.819Z,47.60
2022-09-16T12:14:38.114Z,47.79
2022-09-16T12:16:05.811Z,47.83
2022-09-16T12:17:18.970Z,47.72
2022-09-16T12:18:37.694Z,47.54
2022-09-16T12:19:51.578Z,47.17
2022-09-16T12:21:03.185Z,47.01
2022-09-16T12:22:15.542Z,46.71
2022-09-16T12:23:28.722Z,46.62
2022-09-16T12:24:36.549Z,46.52
2022-09-16T12:25:47.016Z,46.20
2022-09-16T12:27:15.305Z,46.57
2022-09-16T12:28:31.302Z,45.93
2022-09-16T12:29:46.691Z,45.72
2022-09-16T12:31:18.734Z,45.73
2022-09-16T12:32:47.580Z,46.47
2022-09-16T12:33:56.198Z,46.10
2022-09-16T12:35:06.338Z,46.30
2022-09-16T12:36:12.622Z,46.37
2022-09-16T12:37:36.665Z,46.54
2022-09-16T12:38:40.263Z,45.99
2022-09-16T12:39:42.866Z,45.70
2022-09-16T12:40:47.552Z,45.49
2022-09-16T12:42:07.048Z,45.75
2022-09-16T12:43:21.065Z,45.64
2022-09-16T12:44:38.226Z,45.37
2022-09-16T12:46:11.294Z,45.74
2022-09-16T12:47:24.234Z,45.34
2022-09-16T12:48:38.523Z,45.38
2022-09-16T12:50:10.279Z,45.78
2022-09-16T12:51:36.487Z,45.74
2022-09-16T12:53:17.365Z,45.83
2022-09-16T12:54:51.293Z,45.51
2022-09-16T12:56:10.628Z,45.70
2022-09-16T12:58:03.675Z,46.06
2022-09-16T12:59:24.408Z,46.59
2022-09-16T13:00:41.351Z,46.63
2022-09-16T13:01:48.561Z,46.94
2022-09-16T13:02:58.938Z,46.46
2022-09-16T13:04:11.166Z,46.90
2022-09-16T13:05:34.525Z,46.75
2022-09-16T13:06:45.259Z,46.47
2022-09-16T13:07:57.379Z,46.49
2022-09-16T13:09:23.539Z,46.43
2022-09-16T13:10:54.413Z,46.12
2022-09-16T13:13:35.560Z,46.80
2022-09-16T13:14:47.958Z,47.02
2022-09-16T13:15:59.236Z,47.18
2022-09-16T13:17:02.840Z,47.56
2022-09-16T13:18:14.236Z,47.57
2022-09-16T13:19:52.864Z,47.82
2022-09-16T13:21:02.460Z,47.40
2022-09-16T13:22:34.579Z,47.38
2022-09-16T13:23:45.594Z,47.54
2022-09-16T13:24:55.122Z,47.70
2022-09-16T13:26:09.922Z,47.57
2022-09-16T13:27:31.243Z,47.22
2022-09-16T13:28:33.557Z,46.84
2022-09-16T13:29:46.671Z,46.44
2022-09-16T13:30:56.371Z,46.03
2022-09-16T13:31:58.566Z,45.53
2022-09-16T13:33:26.489Z,45.52
2022-09-16T13:34:31.205Z,44.66
2022-09-16T13:35:44.875Z,44.99
2022-09-16T13:36:47.672Z,44.76
2022-09-16T13:37:53.261Z,44.80
2022-09-16T13:39:01.988Z,44.37
2022-09-16T13:40:25.469Z,44.17
2022-09-16T13:41:39.290Z,43.38
2022-09-16T13:42:41.458Z,43.24
2022-09-16T13:43:43.560Z,43.26
2022-09-16T13:44:45.879Z,43.33
2022-09-16T13:45:48.105Z,43.11
2022-09-16T13:46:50.282Z,42.87
2022-09-16T13:47:52.658Z,43.13
2022-09-16T13:49:04.638Z,43.76
2022-09-16T13:50:14.195Z,44.13
2022-09-16T13:51:20.457Z,44.80
2022-09-16T13:52:36.281Z,45.35
2022-09-16T13:53:45.173Z,45.75
2022-09-16T13:55:10.022Z,45.70
2022-09-16T13:56:13.777Z,46.48
2022-09-16T13:57:41.849Z,46.88
2022-09-16T13:59:16.061Z,46.60
2022-09-16T14:00:38.024Z,46.46
2022-09-16T14:02:00.344Z,46.13
2022-09-16T14:03:27.026Z,45.92
2022-09-16T14:04:29.218Z,46.10
2022-09-16T14:05:49.901Z,45.99
2022-09-16T14:07:01.122Z,46.18
2022-09-16T14:08:24.808Z,46.29
2022-09-16T14:09:56.184Z,46.42
2022-09-16T14:11:06.723Z,46.16
2022-09-16T14:12:27.660Z,46.31
2022-09-16T14:13:43.827Z,46.11
2022-09-16T14:14:48.071Z,46.03
2022-09-16T14:15:54.250Z,46.13
2022-09-16T14:16:56.772Z,46.25
2022-09-16T14:18:05.142Z,46.20
2022-09-16T14:19:33.074Z,46.50
2022-09-16T14:20:35.442Z,46.50
2022-09-16T14:21:39.824Z,46.29
2022-09-16T14:22:46.058Z,45.93
2022-09-16T14:23:48.508Z,45.66
2022-09-16T14:25:00.591Z,45.69
2022-09-16T14:26:13.946Z,45.38
2022-09-16T14:27:30.487Z,45.35
2022-09-16T14:28:34.839Z,45.31
2022-09-16T14:29:41.940Z,45.09
2022-09-16T14:30:52.702Z,45.35
2022-09-16T14:31:57.738Z,45.15
2022-09-16T14:33:04.911Z,45.00
2022-09-16T14:34:10.880Z,45.01
2022-09-16T14:35:23.198Z,45.14
2022-09-16T14:36:32.224Z,44.90
2022-09-16T14:37:34.496Z,44.75
2022-09-16T14:38:47.584Z,44.98
2022-09-16T14:39:55.176Z,44.48
2022-09-16T14:40:57.927Z,44.70
2022-09-16T14:42:07.364Z,44.48
2022-09-16T14:43:17.364Z,44.28
2022-09-16T14:44:19.525Z,44.17
2022-09-16T14:45:22.388Z,44.24
2022-09-16T14:46:25.762Z,44.36
2022-09-16T14:47:51.340Z,44.57
2022-09-16T14:48:54.214Z,44.52
2022-09-16T14:50:03.578Z,44.13
2022-09-16T14:51:15.582Z,43.91
2022-09-16T14:52:23.670Z,43.91
2022-09-16T14:53:40.825Z,44.06
2022-09-16T14:54:45.924Z,44.03
2022-09-16T14:55:49.469Z,44.04
2022-09-16T14:57:23.156Z,44.63
2022-09-16T14:58:31.251Z,44.68
2022-09-16T14:59:39.027Z,44.34
2022-09-16T15:00:47.667Z,44.29
2022-09-16T15:01:50.096Z,43.97
2022-09-16T15:03:06.846Z,44.09
2022-09-16T15:04:26.287Z,44.04
2022-09-16T15:05:36.894Z,44.08
2022-09-16T15:06:50.708Z,43.65
2022-09-16T15:08:13.231Z,42.93